sensor_id;sensor_type;location;lat;lon;timestamp;temperature;humidity
71672;DHT22;67659;45.554;11.812;2023-07-29T00:41:40;25.60;99.90
71672;DHT22;67659;45.554;11.812;2023-07-29T00:44:54;25.50;99.90
71672;DHT22;67659;45.554;11.812;2023-07-29T00:48:25;25.60;99.90
71672;DHT22;67659;45.554;11.812;2023-07-29T00:51:00;25.50;99.90
71672;DHT22;67659;45.554;11.812;2023-07-29T00:56:37;25.30;99.90
71672;DHT22;67659;45.554;11.812;2023-07-29T00:59:35;25.20;99.90
71672;DHT22;67659;45.554;11.812;2023-07-29T01:09:20;25.30;99.90
71672;DHT22;67659;45.554;11.812;2023-07-29T01:15:11;24.90;99.90
71672;DHT22;67659;45.554;11.812;2023-07-29T01:18:19;25.00;99.90
71672;DHT22;67659;45.554;11.812;2023-07-29T01:21:16;24.90;99.90
71672;DHT22;67659;45.554;11.812;2023-07-29T01:23:58;24.90;99.90
71672;DHT22;67659;45.554;11.812;2023-07-29T01:27:10;25.00;99.90
71672;DHT22;67659;45.554;11.812;2023-07-29T01:29:36;25.00;99.90
71672;DHT22;67659;45.554;11.812;2023-07-29T01:32:43;24.90;99.90
71672;DHT22;67659;45.554;11.812;2023-07-29T01:38:47;24.90;99.90
71672;DHT22;67659;45.554;11.812;2023-07-29T01:41:14;24.80;99.90
71672;DHT22;67659;45.554;11.812;2023-07-29T01:43:46;24.80;99.90
71672;DHT22;67659;45.554;11.812;2023-07-29T01:46:13;24.80;99.90
71672;DHT22;67659;45.554;11.812;2023-07-29T01:49:15;24.70;99.90
71672;DHT22;67659;45.554;11.812;2023-07-29T01:52:06;24.80;99.90
71672;DHT22;67659;45.554;11.812;2023-07-29T02:01:21;24.20;99.90
71672;DHT22;67659;45.554;11.812;2023-07-29T02:04:23;24.20;99.90
71672;DHT22;67659;45.554;11.812;2023-07-29T02:44:05;23.90;99.90
71672;DHT22;67659;45.554;11.812;2023-07-29T02:46:58;23.80;99.90
71672;DHT22;67659;45.554;11.812;2023-07-29T02:52:51;23.80;99.90
71672;DHT22;67659;45.554;11.812;2023-07-29T02:55:26;23.80;99.90
71672;DHT22;67659;45.554;11.812;2023-07-29T02:58:07;23.90;99.90
71672;DHT22;67659;45.554;11.812;2023-07-29T03:00:38;23.80;99.90
71672;DHT22;67659;45.554;11.812;2023-07-29T03:03:29;23.90;99.90
71672;DHT22;67659;45.554;11.812;2023-07-29T03:06:07;23.80;99.90
71672;DHT22;67659;45.554;11.812;2023-07-29T03:08:58;23.70;99.90
71672;DHT22;67659;45.554;11.812;2023-07-29T03:11:40;23.70;99.90
71672;DHT22;67659;45.554;11.812;2023-07-29T03:14:06;23.70;99.90
71672;DHT22;67659;45.554;11.812;2023-07-29T03:16:32;23.80;99.90
71672;DHT22;67659;45.554;11.812;2023-07-29T03:18:57;23.70;99.90
71672;DHT22;67659;45.554;11.812;2023-07-29T03:21:25;23.70;99.90
71672;DHT22;67659;45.554;11.812;2023-07-29T03:23:52;23.80;99.90
71672;DHT22;67659;45.554;11.812;2023-07-29T03:26:17;23.70;99.90
71672;DHT22;67659;45.554;11.812;2023-07-29T03:28:43;23.80;99.90
71672;DHT22;67659;45.554;11.812;2023-07-29T03:31:10;23.80;99.90
71672;DHT22;67659;45.554;11.812;2023-07-29T03:33:37;23.80;99.90
71672;DHT22;67659;45.554;11.812;2023-07-29T03:36:03;23.70;99.90
71672;DHT22;67659;45.554;11.812;2023-07-29T03:38:29;23.70;99.90
71672;DHT22;67659;45.554;11.812;2023-07-29T03:40:54;23.60;99.90
71672;DHT22;67659;45.554;11.812;2023-07-29T03:43:20;23.60;99.90
71672;DHT22;67659;45.554;11.812;2023-07-29T03:45:46;23.70;99.90
71672;DHT22;67659;45.554;11.812;2023-07-29T03:48:12;23.80;99.90
71672;DHT22;67659;45.554;11.812;2023-07-29T03:50:38;23.70;99.90
71672;DHT22;67659;45.554;11.812;2023-07-29T03:53:10;23.60;99.90
71672;DHT22;67659;45.554;11.812;2023-07-29T03:55:54;23.70;99.90
71672;DHT22;67659;45.554;11.812;2023-07-29T03:58:20;23.50;99.90
71672;DHT22;67659;45.554;11.812;2023-07-29T04:00:46;23.30;99.90
71672;DHT22;67659;45.554;11.812;2023-07-29T04:03:12;23.10;99.90
71672;DHT22;67659;45.554;11.812;2023-07-29T04:05:38;23.10;99.90
71672;DHT22;67659;45.554;11.812;2023-07-29T04:08:26;23.00;99.90
71672;DHT22;67659;45.554;11.812;2023-07-29T04:10:52;23.20;99.90
71672;DHT22;67659;45.554;11.812;2023-07-29T04:13:17;23.40;99.90
71672;DHT22;67659;45.554;11.812;2023-07-29T04:16:04;23.50;99.90
71672;DHT22;67659;45.554;11.812;2023-07-29T04:18:42;23.60;99.90
71672;DHT22;67659;45.554;11.812;2023-07-29T04:21:11;23.80;99.90
71672;DHT22;67659;45.554;11.812;2023-07-29T04:23:37;23.90;99.90
71672;DHT22;67659;45.554;11.812;2023-07-29T04:28:56;23.80;99.90
71672;DHT22;67659;45.554;11.812;2023-07-29T04:31:58;23.70;99.90
71672;DHT22;67659;45.554;11.812;2023-07-29T04:37:48;23.80;99.90
71672;DHT22;67659;45.554;11.812;2023-07-29T04:40:17;24.00;99.90
71672;DHT22;67659;45.554;11.812;2023-07-29T04:45:59;24.10;99.90
71672;DHT22;67659;45.554;11.812;2023-07-29T04:48:50;24.30;99.90
71672;DHT22;67659;45.554;11.812;2023-07-29T04:51:18;24.30;99.90
71672;DHT22;67659;45.554;11.812;2023-07-29T04:54:01;24.50;99.90
71672;DHT22;67659;45.554;11.812;2023-07-29T04:57:08;24.50;99.90
71672;DHT22;67659;45.554;11.812;2023-07-29T05:00:08;24.50;99.90
71672;DHT22;67659;45.554;11.812;2023-07-29T05:06:19;24.90;99.90
71672;DHT22;67659;45.554;11.812;2023-07-29T05:09:19;25.00;99.90
71672;DHT22;67659;45.554;11.812;2023-07-29T05:12:01;25.20;99.90
71672;DHT22;67659;45.554;11.812;2023-07-29T05:14:53;25.10;99.90
71672;DHT22;67659;45.554;11.812;2023-07-29T05:17:27;25.10;99.90
71672;DHT22;67659;45.554;11.812;2023-07-29T05:20:16;25.20;99.90
71672;DHT22;67659;45.554;11.812;2023-07-29T05:23:26;25.30;99.90
71672;DHT22;67659;45.554;11.812;2023-07-29T05:26:10;25.30;99.90
71672;DHT22;67659;45.554;11.812;2023-07-29T05:28:50;25.50;99.90
71672;DHT22;67659;45.554;11.812;2023-07-29T05:31:48;25.70;99.90
71672;DHT22;67659;45.554;11.812;2023-07-29T05:34:37;25.90;99.90
71672;DHT22;67659;45.554;11.812;2023-07-29T05:37:08;26.20;99.90
71672;DHT22;67659;45.554;11.812;2023-07-29T05:39:59;26.40;99.90
71672;DHT22;67659;45.554;11.812;2023-07-29T05:42:49;26.70;97.50
71672;DHT22;67659;45.554;11.812;2023-07-29T05:45:28;27.00;96.10
71672;DHT22;67659;45.554;11.812;2023-07-29T05:47:59;27.20;97.20
71672;DHT22;67659;45.554;11.812;2023-07-29T05:50:25;27.30;95.60
71672;DHT22;67659;45.554;11.812;2023-07-29T05:52:50;27.20;96.70
71672;DHT22;67659;45.554;11.812;2023-07-29T05:55:16;27.60;94.90
71672;DHT22;67659;45.554;11.812;2023-07-29T05:57:42;27.80;94.40
71672;DHT22;67659;45.554;11.812;2023-07-29T06:00:08;28.00;93.50
71672;DHT22;67659;45.554;11.812;2023-07-29T06:02:35;28.40;92.90
71672;DHT22;67659;45.554;11.812;2023-07-29T06:05:01;28.60;91.40
71672;DHT22;67659;45.554;11.812;2023-07-29T06:07:28;28.30;91.60
71672;DHT22;67659;45.554;11.812;2023-07-29T06:09:56;28.60;91.40
71672;DHT22;67659;45.554;11.812;2023-07-29T06:12:23;28.90;90.90
71672;DHT22;67659;45.554;11.812;2023-07-29T06:14:49;29.00;90.30
71672;DHT22;67659;45.554;11.812;2023-07-29T06:17:14;29.20;89.10
71672;DHT22;67659;45.554;11.812;2023-07-29T06:19:40;29.50;88.40
71672;DHT22;67659;45.554;11.812;2023-07-29T06:22:06;29.60;88.20
71672;DHT22;67659;45.554;11.812;2023-07-29T06:24:32;29.70;88.00
71672;DHT22;67659;45.554;11.812;2023-07-29T06:26:58;29.90;87.20
71672;DHT22;67659;45.554;11.812;2023-07-29T06:29:24;30.00;87.10
71672;DHT22;67659;45.554;11.812;2023-07-29T06:31:50;29.90;86.40
71672;DHT22;67659;45.554;11.812;2023-07-29T06:34:17;30.30;86.80
71672;DHT22;67659;45.554;11.812;2023-07-29T06:36:44;29.80;86.40
71672;DHT22;67659;45.554;11.812;2023-07-29T06:39:10;30.00;87.70
71672;DHT22;67659;45.554;11.812;2023-07-29T06:41:35;30.30;86.60
71672;DHT22;67659;45.554;11.812;2023-07-29T06:44:01;30.50;85.90
71672;DHT22;67659;45.554;11.812;2023-07-29T06:46:27;30.60;85.80
71672;DHT22;67659;45.554;11.812;2023-07-29T06:48:58;30.80;86.10
71672;DHT22;67659;45.554;11.812;2023-07-29T06:51:23;31.10;85.40
71672;DHT22;67659;45.554;11.812;2023-07-29T06:53:49;31.40;84.10
71672;DHT22;67659;45.554;11.812;2023-07-29T06:56:15;31.40;84.70
71672;DHT22;67659;45.554;11.812;2023-07-29T06:58:41;31.40;83.90
71672;DHT22;67659;45.554;11.812;2023-07-29T07:01:07;31.50;83.90
71672;DHT22;67659;45.554;11.812;2023-07-29T07:03:33;31.70;83.90
71672;DHT22;67659;45.554;11.812;2023-07-29T07:06:01;31.70;84.00
71672;DHT22;67659;45.554;11.812;2023-07-29T07:08:28;31.80;84.30
71672;DHT22;67659;45.554;11.812;2023-07-29T07:10:56;32.00;82.60
71672;DHT22;67659;45.554;11.812;2023-07-29T07:13:22;31.40;82.30
71672;DHT22;67659;45.554;11.812;2023-07-29T07:15:48;30.40;85.40
71672;DHT22;67659;45.554;11.812;2023-07-29T07:18:13;31.20;86.10
71672;DHT22;67659;45.554;11.812;2023-07-29T07:20:39;31.60;85.10
71672;DHT22;67659;45.554;11.812;2023-07-29T07:23:05;32.00;82.70
71672;DHT22;67659;45.554;11.812;2023-07-29T07:25:34;31.90;81.90
71672;DHT22;67659;45.554;11.812;2023-07-29T07:28:00;31.30;83.50
71672;DHT22;67659;45.554;11.812;2023-07-29T07:30:26;31.90;83.10
71672;DHT22;67659;45.554;11.812;2023-07-29T07:32:51;31.70;83.90
71672;DHT22;67659;45.554;11.812;2023-07-29T07:35:17;32.00;83.80
71672;DHT22;67659;45.554;11.812;2023-07-29T07:37:44;32.70;82.40
71672;DHT22;67659;45.554;11.812;2023-07-29T07:40:10;33.00;81.90
71672;DHT22;67659;45.554;11.812;2023-07-29T07:42:36;33.30;81.40
71672;DHT22;67659;45.554;11.812;2023-07-29T07:45:02;33.50;80.40
71672;DHT22;67659;45.554;11.812;2023-07-29T07:47:28;33.10;80.10
71672;DHT22;67659;45.554;11.812;2023-07-29T07:49:54;33.40;80.70
71672;DHT22;67659;45.554;11.812;2023-07-29T07:52:20;33.50;80.40
71672;DHT22;67659;45.554;11.812;2023-07-29T07:54:53;33.80;79.60
71672;DHT22;67659;45.554;11.812;2023-07-29T07:57:20;33.80;80.20
71672;DHT22;67659;45.554;11.812;2023-07-29T07:59:47;34.10;79.60
71672;DHT22;67659;45.554;11.812;2023-07-29T08:02:13;34.30;78.50
71672;DHT22;67659;45.554;11.812;2023-07-29T08:04:39;33.70;78.00
71672;DHT22;67659;45.554;11.812;2023-07-29T08:07:05;34.00;79.30
71672;DHT22;67659;45.554;11.812;2023-07-29T08:09:31;34.20;78.50
71672;DHT22;67659;45.554;11.812;2023-07-29T08:11:57;34.00;78.70
71672;DHT22;67659;45.554;11.812;2023-07-29T08:14:23;33.80;79.50
71672;DHT22;67659;45.554;11.812;2023-07-29T08:16:49;33.60;80.40
71672;DHT22;67659;45.554;11.812;2023-07-29T08:19:14;32.60;79.60
71672;DHT22;67659;45.554;11.812;2023-07-29T08:21:40;32.90;81.10
71672;DHT22;67659;45.554;11.812;2023-07-29T08:24:06;32.90;80.00
71672;DHT22;67659;45.554;11.812;2023-07-29T08:26:33;32.10;81.20
71672;DHT22;67659;45.554;11.812;2023-07-29T08:28:59;31.40;82.90
71672;DHT22;67659;45.554;11.812;2023-07-29T08:31:25;32.50;81.50
71672;DHT22;67659;45.554;11.812;2023-07-29T08:33:51;32.20;81.70
71672;DHT22;67659;45.554;11.812;2023-07-29T08:36:17;31.80;83.50
71672;DHT22;67659;45.554;11.812;2023-07-29T08:38:43;31.30;83.00
71672;DHT22;67659;45.554;11.812;2023-07-29T08:41:29;32.00;81.10
71672;DHT22;67659;45.554;11.812;2023-07-29T08:44:06;32.00;82.30
71672;DHT22;67659;45.554;11.812;2023-07-29T08:46:33;31.40;82.90
71672;DHT22;67659;45.554;11.812;2023-07-29T08:48:59;31.60;82.60
71672;DHT22;67659;45.554;11.812;2023-07-29T08:51:27;31.20;82.50
71672;DHT22;67659;45.554;11.812;2023-07-29T08:53:55;31.10;85.00
71672;DHT22;67659;45.554;11.812;2023-07-29T08:56:21;31.00;85.70
71672;DHT22;67659;45.554;11.812;2023-07-29T08:58:48;31.20;85.20
71672;DHT22;67659;45.554;11.812;2023-07-29T09:01:15;31.20;84.90
71672;DHT22;67659;45.554;11.812;2023-07-29T09:03:41;31.50;84.80
71672;DHT22;67659;45.554;11.812;2023-07-29T09:06:08;32.30;82.30
71672;DHT22;67659;45.554;11.812;2023-07-29T09:08:36;33.40;80.60
71672;DHT22;67659;45.554;11.812;2023-07-29T09:11:03;33.80;78.00
71672;DHT22;67659;45.554;11.812;2023-07-29T09:13:29;33.40;79.10
71672;DHT22;67659;45.554;11.812;2023-07-29T09:15:57;33.30;78.10
71672;DHT22;67659;45.554;11.812;2023-07-29T09:18:23;33.00;79.50
71672;DHT22;67659;45.554;11.812;2023-07-29T09:20:51;33.10;80.10
71672;DHT22;67659;45.554;11.812;2023-07-29T09:23:17;33.00;78.70
71672;DHT22;67659;45.554;11.812;2023-07-29T09:25:46;33.40;78.80
71672;DHT22;67659;45.554;11.812;2023-07-29T09:28:14;33.10;78.50
71672;DHT22;67659;45.554;11.812;2023-07-29T09:30:42;32.80;80.20
71672;DHT22;67659;45.554;11.812;2023-07-29T09:33:11;33.00;77.80
71672;DHT22;67659;45.554;11.812;2023-07-29T09:35:37;33.30;78.70
71672;DHT22;67659;45.554;11.812;2023-07-29T09:38:07;33.90;79.50
71672;DHT22;67659;45.554;11.812;2023-07-29T09:40:40;34.60;76.30
71672;DHT22;67659;45.554;11.812;2023-07-29T09:43:09;35.00;75.60
71672;DHT22;67659;45.554;11.812;2023-07-29T09:45:36;35.00;75.90
71672;DHT22;67659;45.554;11.812;2023-07-29T09:48:03;35.10;77.40
71672;DHT22;67659;45.554;11.812;2023-07-29T09:50:31;35.50;76.00
71672;DHT22;67659;45.554;11.812;2023-07-29T09:52:57;36.20;75.40
71672;DHT22;67659;45.554;11.812;2023-07-29T09:55:26;36.40;73.00
71672;DHT22;67659;45.554;11.812;2023-07-29T09:57:58;37.10;73.60
71672;DHT22;67659;45.554;11.812;2023-07-29T10:00:32;37.40;72.50
71672;DHT22;67659;45.554;11.812;2023-07-29T10:02:58;37.90;70.50
71672;DHT22;67659;45.554;11.812;2023-07-29T10:05:29;37.20;70.50
71672;DHT22;67659;45.554;11.812;2023-07-29T10:07:56;36.40;74.30
71672;DHT22;67659;45.554;11.812;2023-07-29T10:10:22;35.80;70.60
71672;DHT22;67659;45.554;11.812;2023-07-29T10:12:48;35.60;74.30
71672;DHT22;67659;45.554;11.812;2023-07-29T10:15:15;35.20;73.80
71672;DHT22;67659;45.554;11.812;2023-07-29T10:17:41;34.70;74.80
71672;DHT22;67659;45.554;11.812;2023-07-29T10:20:08;34.90;75.20
71672;DHT22;67659;45.554;11.812;2023-07-29T10:22:40;35.40;72.80
71672;DHT22;67659;45.554;11.812;2023-07-29T10:25:15;35.30;74.50
71672;DHT22;67659;45.554;11.812;2023-07-29T10:27:52;35.50;73.40
71672;DHT22;67659;45.554;11.812;2023-07-29T10:30:18;35.70;71.50
71672;DHT22;67659;45.554;11.812;2023-07-29T10:32:45;35.40;72.70
71672;DHT22;67659;45.554;11.812;2023-07-29T10:35:12;35.70;70.80
71672;DHT22;67659;45.554;11.812;2023-07-29T10:37:39;35.80;73.30
71672;DHT22;67659;45.554;11.812;2023-07-29T10:40:07;36.50;70.50
71672;DHT22;67659;45.554;11.812;2023-07-29T10:42:33;37.40;67.90
71672;DHT22;67659;45.554;11.812;2023-07-29T10:45:00;38.20;66.50
71672;DHT22;67659;45.554;11.812;2023-07-29T10:47:42;38.20;65.60
71672;DHT22;67659;45.554;11.812;2023-07-29T10:50:20;38.40;62.50
71672;DHT22;67659;45.554;11.812;2023-07-29T10:52:51;38.50;64.60
71672;DHT22;67659;45.554;11.812;2023-07-29T10:55:33;38.50;61.60
71672;DHT22;67659;45.554;11.812;2023-07-29T10:58:11;38.60;64.30
71672;DHT22;67659;45.554;11.812;2023-07-29T11:00:38;38.70;64.30
71672;DHT22;67659;45.554;11.812;2023-07-29T11:03:08;39.00;63.90
71672;DHT22;67659;45.554;11.812;2023-07-29T11:08:20;38.60;61.90
71672;DHT22;67659;45.554;11.812;2023-07-29T11:11:08;39.00;65.70
71672;DHT22;67659;45.554;11.812;2023-07-29T11:13:38;38.80;60.70
71672;DHT22;67659;45.554;11.812;2023-07-29T11:16:04;39.10;60.50
71672;DHT22;67659;45.554;11.812;2023-07-29T11:18:32;39.20;58.10
71672;DHT22;67659;45.554;11.812;2023-07-29T11:21:00;39.30;61.80
71672;DHT22;67659;45.554;11.812;2023-07-29T11:23:34;38.60;60.10
71672;DHT22;67659;45.554;11.812;2023-07-29T11:26:02;38.50;64.30
71672;DHT22;67659;45.554;11.812;2023-07-29T11:28:28;39.00;59.60
71672;DHT22;67659;45.554;11.812;2023-07-29T11:30:58;39.10;57.60
71672;DHT22;67659;45.554;11.812;2023-07-29T11:33:27;37.60;61.10
71672;DHT22;67659;45.554;11.812;2023-07-29T11:35:54;37.90;58.30
71672;DHT22;67659;45.554;11.812;2023-07-29T11:38:21;38.10;58.10
71672;DHT22;67659;45.554;11.812;2023-07-29T11:40:59;38.30;60.70
71672;DHT22;67659;45.554;11.812;2023-07-29T11:43:26;38.40;57.00
71672;DHT22;67659;45.554;11.812;2023-07-29T11:45:52;38.40;56.10
71672;DHT22;67659;45.554;11.812;2023-07-29T11:48:26;38.20;58.00
71672;DHT22;67659;45.554;11.812;2023-07-29T11:50:53;38.00;60.30
71672;DHT22;67659;45.554;11.812;2023-07-29T11:53:20;38.50;61.00
71672;DHT22;67659;45.554;11.812;2023-07-29T11:55:53;38.80;59.70
71672;DHT22;67659;45.554;11.812;2023-07-29T11:58:20;39.00;60.90
71672;DHT22;67659;45.554;11.812;2023-07-29T12:00:47;39.30;59.80
71672;DHT22;67659;45.554;11.812;2023-07-29T12:03:13;39.20;57.00
71672;DHT22;67659;45.554;11.812;2023-07-29T12:05:40;38.90;58.60
71672;DHT22;67659;45.554;11.812;2023-07-29T12:08:08;38.60;59.60
71672;DHT22;67659;45.554;11.812;2023-07-29T12:10:35;38.40;56.90
71672;DHT22;67659;45.554;11.812;2023-07-29T12:13:02;38.60;60.90
71672;DHT22;67659;45.554;11.812;2023-07-29T12:15:29;38.80;60.60
71672;DHT22;67659;45.554;11.812;2023-07-29T12:17:58;39.00;63.00
71672;DHT22;67659;45.554;11.812;2023-07-29T12:20:25;39.30;57.50
71672;DHT22;67659;45.554;11.812;2023-07-29T12:22:55;39.20;60.00
71672;DHT22;67659;45.554;11.812;2023-07-29T12:25:22;39.20;60.40
71672;DHT22;67659;45.554;11.812;2023-07-29T12:27:48;39.30;54.60
71672;DHT22;67659;45.554;11.812;2023-07-29T12:30:14;39.40;57.20
71672;DHT22;67659;45.554;11.812;2023-07-29T12:32:44;39.30;57.30
71672;DHT22;67659;45.554;11.812;2023-07-29T12:35:11;39.20;57.20
71672;DHT22;67659;45.554;11.812;2023-07-29T12:37:37;39.10;57.90
71672;DHT22;67659;45.554;11.812;2023-07-29T12:40:05;38.90;57.10
71672;DHT22;67659;45.554;11.812;2023-07-29T12:42:31;38.00;59.10
71672;DHT22;67659;45.554;11.812;2023-07-29T12:44:57;37.90;60.90
71672;DHT22;67659;45.554;11.812;2023-07-29T12:47:22;37.60;62.60
71672;DHT22;67659;45.554;11.812;2023-07-29T12:49:48;37.00;62.60
71672;DHT22;67659;45.554;11.812;2023-07-29T12:52:14;36.70;70.20
71672;DHT22;67659;45.554;11.812;2023-07-29T12:54:40;36.20;61.40
71672;DHT22;67659;45.554;11.812;2023-07-29T12:57:07;35.90;66.30
71672;DHT22;67659;45.554;11.812;2023-07-29T12:59:33;35.70;65.30
71672;DHT22;67659;45.554;11.812;2023-07-29T13:01:59;35.50;63.60
71672;DHT22;67659;45.554;11.812;2023-07-29T13:04:25;35.60;65.20
71672;DHT22;67659;45.554;11.812;2023-07-29T13:06:51;35.60;66.40
71672;DHT22;67659;45.554;11.812;2023-07-29T13:09:17;35.60;69.60
71672;DHT22;67659;45.554;11.812;2023-07-29T13:11:43;34.90;66.60
71672;DHT22;67659;45.554;11.812;2023-07-29T13:14:09;34.90;66.00
71672;DHT22;67659;45.554;11.812;2023-07-29T13:16:35;35.10;66.90
71672;DHT22;67659;45.554;11.812;2023-07-29T13:19:01;35.10;64.70
71672;DHT22;67659;45.554;11.812;2023-07-29T13:21:27;34.70;66.20
71672;DHT22;67659;45.554;11.812;2023-07-29T13:23:53;35.00;69.80
71672;DHT22;67659;45.554;11.812;2023-07-29T13:26:19;35.20;67.90
71672;DHT22;67659;45.554;11.812;2023-07-29T13:28:45;35.10;63.20
71672;DHT22;67659;45.554;11.812;2023-07-29T13:31:10;35.00;66.50
71672;DHT22;67659;45.554;11.812;2023-07-29T13:33:37;34.90;66.60
71672;DHT22;67659;45.554;11.812;2023-07-29T13:36:03;34.90;67.80
71672;DHT22;67659;45.554;11.812;2023-07-29T13:38:29;34.90;67.90
71672;DHT22;67659;45.554;11.812;2023-07-29T13:40:55;34.90;66.40
71672;DHT22;67659;45.554;11.812;2023-07-29T13:43:21;35.00;67.60
71672;DHT22;67659;45.554;11.812;2023-07-29T13:45:47;35.00;67.20
71672;DHT22;67659;45.554;11.812;2023-07-29T13:48:15;34.80;68.70
71672;DHT22;67659;45.554;11.812;2023-07-29T13:50:41;34.70;68.70
71672;DHT22;67659;45.554;11.812;2023-07-29T13:53:09;34.80;67.60
71672;DHT22;67659;45.554;11.812;2023-07-29T13:55:35;34.40;70.70
71672;DHT22;67659;45.554;11.812;2023-07-29T13:58:01;34.30;71.30
71672;DHT22;67659;45.554;11.812;2023-07-29T14:00:27;34.40;70.10
71672;DHT22;67659;45.554;11.812;2023-07-29T14:02:53;34.30;71.70
71672;DHT22;67659;45.554;11.812;2023-07-29T14:05:19;34.40;69.10
71672;DHT22;67659;45.554;11.812;2023-07-29T14:07:45;34.60;68.00
71672;DHT22;67659;45.554;11.812;2023-07-29T14:10:11;34.70;65.70
71672;DHT22;67659;45.554;11.812;2023-07-29T14:12:39;34.70;67.90
71672;DHT22;67659;45.554;11.812;2023-07-29T14:15:05;34.50;68.10
71672;DHT22;67659;45.554;11.812;2023-07-29T14:17:32;34.40;67.20
71672;DHT22;67659;45.554;11.812;2023-07-29T14:19:58;34.30;68.40
71672;DHT22;67659;45.554;11.812;2023-07-29T14:22:23;34.20;71.50
71672;DHT22;67659;45.554;11.812;2023-07-29T14:24:49;34.30;68.60
71672;DHT22;67659;45.554;11.812;2023-07-29T14:27:15;34.40;68.20
71672;DHT22;67659;45.554;11.812;2023-07-29T14:29:42;34.40;69.50
71672;DHT22;67659;45.554;11.812;2023-07-29T14:32:08;34.30;69.70
71672;DHT22;67659;45.554;11.812;2023-07-29T14:34:34;34.40;69.70
71672;DHT22;67659;45.554;11.812;2023-07-29T14:37:00;34.50;68.90
71672;DHT22;67659;45.554;11.812;2023-07-29T14:39:26;34.40;68.80
71672;DHT22;67659;45.554;11.812;2023-07-29T14:41:52;34.30;69.20
71672;DHT22;67659;45.554;11.812;2023-07-29T14:44:17;34.30;69.30
71672;DHT22;67659;45.554;11.812;2023-07-29T14:46:43;34.30;68.50
71672;DHT22;67659;45.554;11.812;2023-07-29T14:49:09;34.30;67.90
71672;DHT22;67659;45.554;11.812;2023-07-29T14:51:35;34.30;68.50
71672;DHT22;67659;45.554;11.812;2023-07-29T14:54:01;34.20;68.00
71672;DHT22;67659;45.554;11.812;2023-07-29T14:56:27;34.20;67.70
71672;DHT22;67659;45.554;11.812;2023-07-29T14:58:53;34.10;68.50
71672;DHT22;67659;45.554;11.812;2023-07-29T15:01:19;34.10;69.40
71672;DHT22;67659;45.554;11.812;2023-07-29T15:03:45;33.90;68.40
71672;DHT22;67659;45.554;11.812;2023-07-29T15:06:11;33.80;67.40
71672;DHT22;67659;45.554;11.812;2023-07-29T15:08:37;33.60;68.30
71672;DHT22;67659;45.554;11.812;2023-07-29T15:11:03;33.50;67.90
71672;DHT22;67659;45.554;11.812;2023-07-29T15:13:29;33.20;69.10
71672;DHT22;67659;45.554;11.812;2023-07-29T15:15:55;33.20;70.50
71672;DHT22;67659;45.554;11.812;2023-07-29T15:18:21;33.30;69.80
71672;DHT22;67659;45.554;11.812;2023-07-29T15:20:46;33.50;70.70
71672;DHT22;67659;45.554;11.812;2023-07-29T15:23:12;33.70;67.10
71672;DHT22;67659;45.554;11.812;2023-07-29T15:25:38;33.70;68.60
71672;DHT22;67659;45.554;11.812;2023-07-29T15:28:04;33.50;69.20
71672;DHT22;67659;45.554;11.812;2023-07-29T15:30:30;33.40;69.10
71672;DHT22;67659;45.554;11.812;2023-07-29T15:32:56;33.40;70.50
71672;DHT22;67659;45.554;11.812;2023-07-29T15:35:22;33.40;69.00
71672;DHT22;67659;45.554;11.812;2023-07-29T15:37:48;33.60;68.80
71672;DHT22;67659;45.554;11.812;2023-07-29T15:40:14;33.70;67.80
71672;DHT22;67659;45.554;11.812;2023-07-29T15:42:40;33.50;68.40
71672;DHT22;67659;45.554;11.812;2023-07-29T15:45:07;33.40;68.80
71672;DHT22;67659;45.554;11.812;2023-07-29T15:47:33;33.30;69.30
71672;DHT22;67659;45.554;11.812;2023-07-29T15:49:59;33.20;69.70
71672;DHT22;67659;45.554;11.812;2023-07-29T15:52:25;33.10;69.30
71672;DHT22;67659;45.554;11.812;2023-07-29T15:54:52;33.20;69.10
71672;DHT22;67659;45.554;11.812;2023-07-29T15:57:20;33.20;70.70
71672;DHT22;67659;45.554;11.812;2023-07-29T15:59:46;33.30;70.70
71672;DHT22;67659;45.554;11.812;2023-07-29T16:02:12;33.10;69.30
71672;DHT22;67659;45.554;11.812;2023-07-29T16:04:37;33.10;71.20
71672;DHT22;67659;45.554;11.812;2023-07-29T16:07:03;33.10;70.80
71672;DHT22;67659;45.554;11.812;2023-07-29T16:09:29;33.00;70.10
71672;DHT22;67659;45.554;11.812;2023-07-29T16:11:55;33.00;69.90
71672;DHT22;67659;45.554;11.812;2023-07-29T16:14:21;33.10;69.30
71672;DHT22;67659;45.554;11.812;2023-07-29T16:16:49;33.00;72.10
71672;DHT22;67659;45.554;11.812;2023-07-29T16:19:23;33.20;69.50
71672;DHT22;67659;45.554;11.812;2023-07-29T16:21:50;33.10;71.20
71672;DHT22;67659;45.554;11.812;2023-07-29T16:24:16;33.00;72.10
71672;DHT22;67659;45.554;11.812;2023-07-29T16:26:42;33.10;69.50
71672;DHT22;67659;45.554;11.812;2023-07-29T16:29:08;33.10;71.10
71672;DHT22;67659;45.554;11.812;2023-07-29T16:31:34;33.10;69.30
71672;DHT22;67659;45.554;11.812;2023-07-29T16:34:00;33.10;70.50
71672;DHT22;67659;45.554;11.812;2023-07-29T16:36:26;33.10;68.40
71672;DHT22;67659;45.554;11.812;2023-07-29T16:38:52;32.90;68.20
71672;DHT22;67659;45.554;11.812;2023-07-29T16:41:19;32.90;68.70
71672;DHT22;67659;45.554;11.812;2023-07-29T16:43:44;32.80;69.60
71672;DHT22;67659;45.554;11.812;2023-07-29T16:46:10;32.70;71.20
71672;DHT22;67659;45.554;11.812;2023-07-29T16:48:36;32.70;74.40
71672;DHT22;67659;45.554;11.812;2023-07-29T16:51:02;32.70;72.80
71672;DHT22;67659;45.554;11.812;2023-07-29T16:53:29;32.80;71.10
71672;DHT22;67659;45.554;11.812;2023-07-29T16:55:55;32.80;70.00
71672;DHT22;67659;45.554;11.812;2023-07-29T16:58:21;32.80;70.90
71672;DHT22;67659;45.554;11.812;2023-07-29T17:00:50;32.80;70.90
71672;DHT22;67659;45.554;11.812;2023-07-29T17:03:16;32.70;75.80
71672;DHT22;67659;45.554;11.812;2023-07-29T17:05:44;32.40;76.50
71672;DHT22;67659;45.554;11.812;2023-07-29T17:08:09;32.60;77.90
71672;DHT22;67659;45.554;11.812;2023-07-29T17:10:36;32.70;78.90
71672;DHT22;67659;45.554;11.812;2023-07-29T17:13:01;32.50;79.50
71672;DHT22;67659;45.554;11.812;2023-07-29T17:15:27;32.30;80.30
71672;DHT22;67659;45.554;11.812;2023-07-29T17:17:53;32.30;80.70
71672;DHT22;67659;45.554;11.812;2023-07-29T17:20:21;32.20;80.50
71672;DHT22;67659;45.554;11.812;2023-07-29T17:22:47;32.10;80.70
71672;DHT22;67659;45.554;11.812;2023-07-29T17:25:13;32.00;80.80
71672;DHT22;67659;45.554;11.812;2023-07-29T17:27:39;32.00;80.90
71672;DHT22;67659;45.554;11.812;2023-07-29T17:30:05;31.90;81.20
71672;DHT22;67659;45.554;11.812;2023-07-29T17:32:31;31.90;81.20